createdAt,value
2019-03-22T00:00:33.554Z,91.50
2019-03-22T00:01:14.758Z,91.50
2019-03-22T00:01:50.899Z,91.40
2019-03-22T00:02:27.049Z,91.40
2019-03-22T00:03:03.120Z,91.40
2019-03-22T00:03:39.243Z,91.40
2019-03-22T00:04:15.688Z,91.40
2019-03-22T00:04:52.168Z,91.40
2019-03-22T00:05:28.272Z,91.40
2019-03-22T00:06:04.443Z,91.30
2019-03-22T00:06:40.524Z,91.30
2019-03-22T00:07:16.855Z,91.30
2019-03-22T00:07:52.930Z,91.30
2019-03-22T00:08:29.018Z,91.30
2019-03-22T00:09:06.535Z,91.20
2019-03-22T00:09:42.618Z,91.20
2019-03-22T00:10:18.996Z,91.20
2019-03-22T00:10:55.367Z,91.20
2019-03-22T00:11:31.474Z,91.30
2019-03-22T00:12:07.907Z,91.30
2019-03-22T00:12:44.027Z,91.30
2019-03-22T00:13:20.114Z,91.30
2019-03-22T00:13:56.211Z,91.30
2019-03-22T00:14:32.287Z,91.30
2019-03-22T00:15:08.711Z,91.30
2019-03-22T00:15:45.110Z,91.30
2019-03-22T00:16:21.225Z,91.30
2019-03-22T00:16:57.362Z,91.30
2019-03-22T00:17:33.471Z,91.70
2019-03-22T00:18:09.622Z,91.30
2019-03-22T00:18:45.704Z,91.30
2019-03-22T00:19:21.786Z,91.30
2019-03-22T00:19:57.873Z,91.30
2019-03-22T00:20:33.942Z,91.30
2019-03-22T00:21:10.062Z,91.40
2019-03-22T00:21:46.675Z,91.40
2019-03-22T00:22:23.019Z,91.50
2019-03-22T00:22:59.152Z,91.40
2019-03-22T00:23:35.214Z,91.50
2019-03-22T00:24:11.580Z,91.50
2019-03-22T00:24:47.660Z,91.50
2019-03-22T00:25:24.090Z,91.60
2019-03-22T00:26:00.170Z,91.50
2019-03-22T00:26:36.310Z,91.60
2019-03-22T00:27:16.802Z,91.50
2019-03-22T00:27:50.487Z,91.50
2019-03-22T00:28:26.575Z,91.50
2019-03-22T00:29:02.668Z,91.50
2019-03-22T00:29:38.737Z,91.60
2019-03-22T00:30:14.819Z,91.60
2019-03-22T00:30:51.989Z,91.60
2019-03-22T00:31:28.095Z,91.60
2019-03-22T00:32:04.368Z,91.60
2019-03-22T00:32:40.530Z,91.70
2019-03-22T00:33:16.633Z,91.70
2019-03-22T00:33:52.721Z,91.70
2019-03-22T00:34:28.802Z,91.80
2019-03-22T00:35:05.500Z,91.80
2019-03-22T00:35:41.956Z,91.80
2019-03-22T00:36:18.477Z,91.90
2019-03-22T00:36:54.550Z,91.90
2019-03-22T00:37:30.635Z,92.00
2019-03-22T00:38:06.706Z,92.00
2019-03-22T00:38:42.811Z,92.10
2019-03-22T00:39:18.884Z,92.10
2019-03-22T00:39:55.318Z,92.10
2019-03-22T00:40:31.433Z,92.10
2019-03-22T00:41:07.526Z,92.20
2019-03-22T00:41:43.649Z,92.10
2019-03-22T00:42:19.731Z,92.10
2019-03-22T00:42:55.846Z,92.20
2019-03-22T00:43:31.928Z,92.20
2019-03-22T00:44:08.374Z,92.10
2019-03-22T00:44:44.880Z,92.20
2019-03-22T00:45:20.955Z,92.10
2019-03-22T00:45:57.059Z,92.20
2019-03-22T00:46:33.293Z,92.10
2019-03-22T00:47:09.746Z,92.10
2019-03-22T00:47:45.872Z,92.10
2019-03-22T00:48:21.991Z,92.10
2019-03-22T00:48:58.153Z,92.10
2019-03-22T00:49:34.235Z,92.10
2019-03-22T00:50:10.387Z,92.10
2019-03-22T00:50:46.820Z,92.10
2019-03-22T00:51:24.508Z,92.10
2019-03-22T00:52:00.578Z,92.00
2019-03-22T00:52:36.738Z,92.00
2019-03-22T00:53:12.837Z,92.10
2019-03-22T00:53:49.740Z,92.00
2019-03-22T00:54:25.864Z,92.10
2019-03-22T00:55:01.940Z,92.10
2019-03-22T00:55:38.371Z,92.10
2019-03-22T00:56:14.535Z,92.20
2019-03-22T00:56:50.647Z,92.20
2019-03-22T00:57:28.739Z,92.20
2019-03-22T00:58:04.529Z,92.30
2019-03-22T00:58:40.602Z,92.20
2019-03-22T00:59:16.688Z,92.30
2019-03-22T00:59:52.787Z,92.30
2019-03-22T01:00:28.884Z,92.30
2019-03-22T01:01:05.000Z,92.40
2019-03-22T01:01:41.083Z,92.40
2019-03-22T01:02:17.207Z,92.40
2019-03-22T01:02:53.593Z,92.50
2019-03-22T01:03:29.927Z,92.60
2019-03-22T01:04:06.080Z,92.60
2019-03-22T01:04:42.159Z,92.60
2019-03-22T01:05:18.544Z,92.50
2019-03-22T01:05:54.658Z,92.80
2019-03-22T01:06:30.743Z,92.50
2019-03-22T01:07:06.848Z,92.50
2019-03-22T01:07:43.084Z,92.70
2019-03-22T01:08:19.204Z,92.50
2019-03-22T01:08:55.302Z,92.50
2019-03-22T01:09:31.400Z,92.50
2019-03-22T01:10:08.478Z,92.50
2019-03-22T01:10:44.742Z,92.50
2019-03-22T01:11:20.869Z,92.40
2019-03-22T01:11:57.330Z,92.40
2019-03-22T01:12:34.496Z,92.40
2019-03-22T01:13:10.572Z,92.40
2019-03-22T01:13:46.786Z,92.40
2019-03-22T01:14:23.233Z,92.40
2019-03-22T01:14:59.323Z,92.40
2019-03-22T01:15:35.417Z,92.40
2019-03-22T01:16:11.537Z,92.40
2019-03-22T01:16:47.675Z,92.50
2019-03-22T01:17:23.776Z,92.40
2019-03-22T01:17:59.944Z,92.40
2019-03-22T01:18:36.078Z,92.50
2019-03-22T01:19:14.517Z,92.50
2019-03-22T01:19:50.899Z,92.50
2019-03-22T01:20:27.091Z,92.60
2019-03-22T01:21:03.185Z,92.60
2019-03-22T01:21:39.281Z,92.60
2019-03-22T01:22:15.440Z,92.60
2019-03-22T01:22:51.804Z,92.70
2019-03-22T01:23:27.954Z,92.70
2019-03-22T01:24:04.108Z,92.80
2019-03-22T01:24:40.243Z,92.80
2019-03-22T01:25:16.322Z,92.80
2019-03-22T01:25:52.430Z,92.80
2019-03-22T01:26:28.519Z,92.80
2019-03-22T01:27:04.906Z,92.80
2019-03-22T01:27:41.489Z,92.90
2019-03-22T01:28:17.852Z,93.10
2019-03-22T01:28:54.305Z,92.90
2019-03-22T01:29:30.411Z,92.80
2019-03-22T01:30:07.713Z,92.80
2019-03-22T01:30:43.884Z,92.90
2019-03-22T01:31:20.258Z,92.80
2019-03-22T01:31:56.328Z,92.80
2019-03-22T01:32:32.427Z,92.70
2019-03-22T01:33:08.546Z,92.80
2019-03-22T01:33:44.945Z,92.70
2019-03-22T01:34:21.274Z,92.70
2019-03-22T01:34:57.379Z,92.70
2019-03-22T01:35:33.450Z,92.70
2019-03-22T01:36:09.542Z,92.60
2019-03-22T01:36:45.639Z,92.60
2019-03-22T01:37:21.715Z,92.60
2019-03-22T01:37:57.814Z,92.60
2019-03-22T01:38:33.908Z,92.60
2019-03-22T01:39:09.978Z,92.60
2019-03-22T01:39:46.377Z,92.70
2019-03-22T01:40:22.489Z,92.60
2019-03-22T01:40:58.594Z,92.60
2019-03-22T01:41:34.763Z,92.70
2019-03-22T01:42:11.170Z,92.70
2019-03-22T01:42:48.221Z,92.70
2019-03-22T01:43:24.574Z,92.70
2019-03-22T01:44:00.959Z,92.70
2019-03-22T01:44:37.077Z,92.70
2019-03-22T01:45:13.369Z,92.60
2019-03-22T01:45:49.518Z,92.60
2019-03-22T01:46:25.635Z,92.60
2019-03-22T01:47:01.716Z,92.60
2019-03-22T01:47:38.213Z,92.50
2019-03-22T01:48:14.299Z,92.50
2019-03-22T01:48:50.769Z,92.50
2019-03-22T01:49:27.017Z,92.50
2019-03-22T01:50:03.113Z,92.50
2019-03-22T01:50:39.248Z,92.50
2019-03-22T01:51:15.437Z,92.50
2019-03-22T01:51:51.707Z,92.50
2019-03-22T01:52:27.819Z,92.50
2019-03-22T01:53:03.971Z,92.50
2019-03-22T01:53:40.066Z,92.50
2019-03-22T01:54:16.163Z,92.50
2019-03-22T01:54:52.311Z,92.50
2019-03-22T01:55:28.694Z,92.50
2019-03-22T01:56:04.796Z,92.50
2019-03-22T01:56:41.202Z,92.50
2019-03-22T01:57:17.317Z,92.50
2019-03-22T01:57:54.088Z,92.50
2019-03-22T01:58:30.271Z,92.50
2019-03-22T01:59:06.374Z,92.50
2019-03-22T01:59:42.466Z,92.60
2019-03-22T02:00:18.634Z,92.60
2019-03-22T02:00:54.809Z,92.60
2019-03-22T02:01:30.923Z,92.50
2019-03-22T02:02:07.389Z,92.60
2019-03-22T02:02:43.698Z,92.60
2019-03-22T02:03:19.815Z,92.60
2019-03-22T02:03:56.240Z,92.60
2019-03-22T02:04:32.822Z,92.50
2019-03-22T02:05:08.985Z,92.60
2019-03-22T02:05:45.211Z,92.60
2019-03-22T02:06:21.739Z,92.60
2019-03-22T02:06:57.834Z,92.60
2019-03-22T02:07:33.952Z,92.60
2019-03-22T02:08:10.631Z,92.50
2019-03-22T02:08:46.767Z,92.60
2019-03-22T02:09:22.951Z,92.50
2019-03-22T02:09:59.070Z,92.50
2019-03-22T02:10:35.199Z,92.50
2019-03-22T02:11:11.629Z,92.50
2019-03-22T02:11:47.784Z,92.50
2019-03-22T02:12:24.486Z,92.50
2019-03-22T02:13:00.605Z,92.50
2019-03-22T02:13:37.689Z,92.50
2019-03-22T02:14:13.772Z,92.50
2019-03-22T02:14:49.851Z,92.50
2019-03-22T02:15:25.922Z,92.50
2019-03-22T02:16:02.027Z,92.60
2019-03-22T02:16:38.451Z,92.60
2019-03-22T02:17:14.522Z,92.60
2019-03-22T02:17:50.646Z,92.60
2019-03-22T02:18:27.703Z,92.60
2019-03-22T02:19:03.782Z,92.70
2019-03-22T02:19:39.875Z,92.60
2019-03-22T02:20:15.966Z,92.70
2019-03-22T02:20:52.136Z,92.70
2019-03-22T02:21:28.214Z,92.70
2019-03-22T02:22:04.291Z,92.60
2019-03-22T02:22:40.675Z,92.60
2019-03-22T02:23:16.775Z,92.70
2019-03-22T02:23:52.856Z,92.60
2019-03-22T02:24:28.989Z,92.70
2019-03-22T02:25:05.359Z,92.60
2019-03-22T02:25:41.460Z,92.60
2019-03-22T02:26:17.540Z,92.60
2019-03-22T02:26:53.649Z,92.70
2019-03-22T02:27:29.726Z,92.70
2019-03-22T02:28:05.828Z,92.70
2019-03-22T02:28:41.902Z,92.70
2019-03-22T02:29:17.998Z,92.70
2019-03-22T02:29:54.088Z,92.80
2019-03-22T02:30:30.170Z,92.80
2019-03-22T02:31:06.631Z,92.80
2019-03-22T02:31:43.023Z,92.80
2019-03-22T02:32:19.136Z,92.90
2019-03-22T02:32:55.223Z,93.10
2019-03-22T02:33:31.381Z,92.90
2019-03-22T02:34:07.474Z,92.90
2019-03-22T02:34:43.554Z,92.90
2019-03-22T02:35:28.320Z,92.90
2019-03-22T02:35:57.507Z,92.90
2019-03-22T02:36:33.594Z,92.90
2019-03-22T02:37:09.969Z,92.90
2019-03-22T02:37:46.093Z,92.90
2019-03-22T02:38:22.513Z,92.80
2019-03-22T02:38:58.587Z,92.90
2019-03-22T02:39:34.734Z,92.90
2019-03-22T02:40:11.094Z,93.00
2019-03-22T02:40:47.349Z,93.00
2019-03-22T02:41:23.493Z,93.10
2019-03-22T02:41:59.569Z,93.10
2019-03-22T02:42:35.641Z,93.20
2019-03-22T02:43:11.711Z,93.20
2019-03-22T02:43:48.164Z,93.20
2019-03-22T02:44:24.300Z,93.20
2019-03-22T02:45:00.759Z,93.20
2019-03-22T02:45:36.927Z,93.20
2019-03-22T02:46:13.282Z,93.20
2019-03-22T02:46:49.394Z,93.20
2019-03-22T02:47:25.474Z,93.30
2019-03-22T02:48:01.577Z,93.30
2019-03-22T02:48:37.948Z,93.40
2019-03-22T02:49:14.033Z,93.40
2019-03-22T02:49:50.136Z,93.50
2019-03-22T02:50:26.212Z,93.50
2019-03-22T02:51:02.604Z,93.50
2019-03-22T02:51:38.767Z,93.60
2019-03-22T02:52:14.848Z,93.60
2019-03-22T02:52:50.938Z,93.60
2019-03-22T02:53:27.028Z,93.60
2019-03-22T02:54:03.119Z,93.60
2019-03-22T02:54:39.204Z,93.60
2019-03-22T02:55:15.295Z,93.60
2019-03-22T02:55:51.403Z,93.60
2019-03-22T02:56:27.562Z,93.60
2019-03-22T02:57:03.975Z,93.60
2019-03-22T02:57:40.388Z,93.60
2019-03-22T02:58:20.874Z,93.90
2019-03-22T02:58:54.559Z,93.60
2019-03-22T02:59:30.637Z,93.60
2019-03-22T03:00:07.401Z,93.60
2019-03-22T03:00:43.510Z,93.60
2019-03-22T03:01:19.590Z,93.60
2019-03-22T03:01:55.759Z,93.50
2019-03-22T03:02:31.882Z,93.60
2019-03-22T03:03:08.202Z,93.60
2019-03-22T03:03:44.386Z,93.60
2019-03-22T03:04:20.495Z,93.60
2019-03-22T03:04:56.583Z,93.70
2019-03-22T03:05:32.655Z,93.60
2019-03-22T03:06:08.743Z,93.70
2019-03-22T03:06:44.951Z,93.70
2019-03-22T03:07:21.077Z,93.70
2019-03-22T03:07:57.181Z,93.70
2019-03-22T03:08:33.268Z,93.70
2019-03-22T03:09:09.363Z,93.80
2019-03-22T03:09:45.442Z,93.80
2019-03-22T03:10:21.543Z,93.80
2019-03-22T03:10:57.615Z,93.80
2019-03-22T03:11:33.719Z,93.80
2019-03-22T03:12:09.875Z,93.70
2019-03-22T03:12:46.003Z,93.70
2019-03-22T03:13:22.421Z,93.70
2019-03-22T03:13:58.501Z,93.70
2019-03-22T03:14:34.578Z,93.70
2019-03-22T03:15:11.202Z,93.60
2019-03-22T03:15:47.834Z,93.60
2019-03-22T03:16:24.067Z,93.50
2019-03-22T03:17:00.296Z,93.50
2019-03-22T03:17:36.411Z,93.50
2019-03-22T03:18:12.493Z,93.40
2019-03-22T03:18:48.941Z,93.40
2019-03-22T03:19:25.024Z,93.40
2019-03-22T03:20:01.117Z,93.40
2019-03-22T03:20:37.201Z,93.80
2019-03-22T03:21:13.285Z,93.40
2019-03-22T03:21:49.486Z,93.40
2019-03-22T03:22:25.660Z,93.40
2019-03-22T03:23:01.768Z,93.40
2019-03-22T03:23:37.838Z,93.30
2019-03-22T03:24:13.932Z,93.30
2019-03-22T03:24:50.017Z,93.30
2019-03-22T03:25:26.126Z,93.30
2019-03-22T03:26:02.217Z,93.20
2019-03-22T03:26:38.665Z,93.20
2019-03-22T03:27:15.165Z,93.20
2019-03-22T03:27:51.337Z,93.20
2019-03-22T03:28:36.467Z,93.20
2019-03-22T03:29:05.224Z,93.10
2019-03-22T03:29:41.624Z,93.20
2019-03-22T03:30:17.774Z,93.20
2019-03-22T03:30:53.925Z,93.10
2019-03-22T03:31:30.147Z,93.20
2019-03-22T03:32:06.284Z,93.10
2019-03-22T03:32:42.514Z,93.40
2019-03-22T03:33:18.641Z,93.10
2019-03-22T03:33:55.091Z,93.10
2019-03-22T03:34:31.178Z,93.10
2019-03-22T03:35:07.361Z,93.10
2019-03-22T03:35:43.452Z,93.10
2019-03-22T03:36:19.543Z,93.10
2019-03-22T03:36:55.752Z,93.20
2019-03-22T03:37:32.102Z,93.20
2019-03-22T03:38:08.183Z,93.30
2019-03-22T03:38:44.309Z,93.30
2019-03-22T03:39:20.399Z,93.40
2019-03-22T03:39:56.516Z,93.40
2019-03-22T03:40:33.236Z,93.40
2019-03-22T03:41:09.688Z,93.40
2019-03-22T03:41:45.775Z,93.40
2019-03-22T03:42:21.851Z,93.40
2019-03-22T03:42:57.965Z,93.50
2019-03-22T03:43:34.057Z,93.50
2019-03-22T03:44:10.139Z,93.50
2019-03-22T03:44:46.229Z,93.50
2019-03-22T03:45:31.182Z,93.60
2019-03-22T03:46:07.455Z,93.60
2019-03-22T03:46:43.546Z,93.60
2019-03-22T03:47:19.937Z,93.60
2019-03-22T03:47:56.024Z,93.60
2019-03-22T03:48:32.411Z,93.60
2019-03-22T03:49:08.535Z,93.60
2019-03-22T03:49:44.855Z,93.70
2019-03-22T03:50:21.175Z,93.70
2019-03-22T03:50:57.259Z,93.70
2019-03-22T03:51:33.334Z,93.70
2019-03-22T03:52:09.437Z,93.70
2019-03-22T03:52:46.591Z,93.70
2019-03-22T03:53:22.689Z,93.70
2019-03-22T03:53:58.768Z,93.80
2019-03-22T03:54:36.265Z,93.70
2019-03-22T03:55:12.360Z,93.80
2019-03-22T03:55:48.450Z,93.80
2019-03-22T03:56:24.538Z,93.80
2019-03-22T03:57:01.766Z,93.80
2019-03-22T03:57:37.932Z,93.90
2019-03-22T03:58:14.645Z,93.90
2019-03-22T03:58:52.592Z,93.90
2019-03-22T03:59:28.996Z,93.90
2019-03-22T04:00:06.603Z,93.90
2019-03-22T04:00:42.726Z,94.00
2019-03-22T04:01:18.832Z,93.90
2019-03-22T04:01:54.913Z,93.90
2019-03-22T04:02:31.003Z,93.90
2019-03-22T04:03:07.113Z,93.90
2019-03-22T04:03:43.243Z,93.90
2019-03-22T04:04:19.345Z,93.80
2019-03-22T04:04:55.834Z,93.80
2019-03-22T04:05:31.934Z,93.80
2019-03-22T04:06:08.301Z,93.80
2019-03-22T04:06:44.387Z,93.80
2019-03-22T04:07:21.827Z,93.80
2019-03-22T04:07:57.962Z,93.90
2019-03-22T04:08:34.066Z,93.90
2019-03-22T04:09:10.832Z,93.90
2019-03-22T04:09:46.906Z,93.90
2019-03-22T04:10:22.982Z,94.00
2019-03-22T04:10:59.313Z,93.90
2019-03-22T04:11:35.416Z,94.00
2019-03-22T04:12:11.558Z,94.00
2019-03-22T04:12:47.674Z,94.00
2019-03-22T04:13:23.768Z,94.10
2019-03-22T04:14:00.424Z,94.10
2019-03-22T04:14:36.494Z,94.50
2019-03-22T04:15:13.048Z,94.10
2019-03-22T04:15:50.230Z,94.00
2019-03-22T04:16:26.317Z,94.00
2019-03-22T04:17:02.737Z,94.00
2019-03-22T04:17:39.087Z,94.10
2019-03-22T04:18:15.200Z,94.00
2019-03-22T04:18:51.298Z,94.00
2019-03-22T04:19:29.586Z,94.00
2019-03-22T04:20:06.575Z,94.00
2019-03-22T04:20:42.949Z,94.00
2019-03-22T04:21:19.294Z,93.90
2019-03-22T04:21:55.401Z,93.90
2019-03-22T04:22:36.106Z,93.90
2019-03-22T04:23:10.320Z,93.90
2019-03-22T04:23:46.375Z,93.90
2019-03-22T04:24:22.469Z,93.90
2019-03-22T04:24:58.558Z,93.90
2019-03-22T04:25:34.645Z,93.90
2019-03-22T04:26:10.957Z,93.90
2019-03-22T04:26:47.089Z,93.90
2019-03-22T04:27:24.392Z,94.00
2019-03-22T04:28:00.570Z,93.90
2019-03-22T04:28:36.686Z,94.00
2019-03-22T04:29:13.017Z,94.00
2019-03-22T04:29:49.092Z,94.10
2019-03-22T04:30:25.264Z,94.00
2019-03-22T04:31:01.356Z,94.00
2019-03-22T04:31:37.494Z,94.00
2019-03-22T04:32:13.591Z,93.80
2019-03-22T04:32:49.701Z,94.00
2019-03-22T04:33:25.802Z,94.00
2019-03-22T04:34:02.135Z,94.00
2019-03-22T04:34:38.294Z,94.00
2019-03-22T04:35:14.385Z,94.00
2019-03-22T04:35:50.465Z,94.00
2019-03-22T04:36:26.553Z,94.00
2019-03-22T04:37:02.884Z,94.00
2019-03-22T04:37:39.011Z,94.00
2019-03-22T04:38:15.110Z,94.00
2019-03-22T04:38:51.220Z,94.00
2019-03-22T04:39:27.308Z,94.00
2019-03-22T04:40:03.403Z,94.00
2019-03-22T04:40:39.500Z,93.90
2019-03-22T04:41:15.687Z,93.90
2019-03-22T04:41:51.867Z,93.90
2019-03-22T04:42:28.236Z,93.90
2019-03-22T04:43:04.330Z,93.90
2019-03-22T04:43:40.428Z,93.80
2019-03-22T04:44:16.499Z,93.80
2019-03-22T04:44:52.587Z,93.80
2019-03-22T04:45:30.094Z,93.70
2019-03-22T04:46:06.478Z,93.70
2019-03-22T04:46:42.565Z,93.70
2019-03-22T04:47:19.004Z,93.70
2019-03-22T04:47:59.783Z,93.70
2019-03-22T04:48:35.893Z,93.70
2019-03-22T04:49:12.084Z,93.70
2019-03-22T04:49:48.221Z,93.60
2019-03-22T04:50:24.618Z,93.60
2019-03-22T04:51:00.786Z,93.60
2019-03-22T04:51:36.894Z,93.60
2019-03-22T04:52:12.974Z,93.50
2019-03-22T04:52:49.059Z,93.50
2019-03-22T04:53:25.159Z,93.50
2019-03-22T04:54:01.425Z,93.50
2019-03-22T04:54:37.871Z,93.50
2019-03-22T04:55:13.957Z,93.70
2019-03-22T04:55:53.665Z,93.50
2019-03-22T04:56:30.186Z,93.60
2019-03-22T04:57:06.305Z,93.60
2019-03-22T04:57:42.639Z,93.60
2019-03-22T04:58:18.853Z,93.60
2019-03-22T04:58:54.945Z,93.60
2019-03-22T04:59:32.014Z,93.70
2019-03-22T05:00:08.790Z,93.70
2019-03-22T05:00:44.863Z,93.70
2019-03-22T05:01:21.638Z,93.70
2019-03-22T05:01:57.727Z,93.80
2019-03-22T05:02:34.186Z,93.80
2019-03-22T05:03:10.284Z,93.80
2019-03-22T05:03:46.396Z,93.80
2019-03-22T05:04:23.029Z,93.90
2019-03-22T05:04:59.126Z,93.90
2019-03-22T05:05:35.226Z,93.90
2019-03-22T05:06:11.601Z,93.90
2019-03-22T05:06:47.688Z,93.90
2019-03-22T05:07:23.775Z,93.90
2019-03-22T05:07:59.855Z,93.90
2019-03-22T05:08:36.002Z,93.90
2019-03-22T05:09:13.082Z,93.90
2019-03-22T05:09:49.516Z,93.90
2019-03-22T05:10:25.599Z,94.00
2019-03-22T05:11:02.038Z,93.90
2019-03-22T05:11:38.551Z,94.00
2019-03-22T05:12:14.641Z,94.00
2019-03-22T05:12:50.759Z,94.00
2019-03-22T05:13:26.841Z,94.00
2019-03-22T05:14:02.939Z,94.00
2019-03-22T05:14:39.485Z,94.00
2019-03-22T05:15:15.633Z,94.10
2019-03-22T05:15:51.802Z,94.10
2019-03-22T05:16:27.891Z,94.10
2019-03-22T05:17:04.046Z,94.10
2019-03-22T05:17:40.138Z,94.20
2019-03-22T05:18:16.241Z,94.30
2019-03-22T05:18:52.380Z,94.30
2019-03-22T05:19:28.484Z,94.30
2019-03-22T05:20:05.171Z,94.30
2019-03-22T05:20:41.276Z,94.40
2019-03-22T05:21:17.450Z,94.40
2019-03-22T05:21:53.544Z,94.50
2019-03-22T05:22:29.926Z,94.50
2019-03-22T05:23:06.377Z,94.60
2019-03-22T05:23:42.836Z,94.50
2019-03-22T05:24:18.926Z,94.50
2019-03-22T05:24:55.036Z,94.60
2019-03-22T05:25:31.156Z,94.60
2019-03-22T05:26:07.283Z,94.60
2019-03-22T05:26:43.734Z,94.60
2019-03-22T05:27:19.818Z,94.60
2019-03-22T05:27:55.916Z,94.60
2019-03-22T05:28:32.991Z,94.60
2019-03-22T05:29:09.085Z,94.60
2019-03-22T05:29:45.746Z,94.60
2019-03-22T05:31:03.529Z,94.60
2019-03-22T05:31:58.484Z,94.60
2019-03-22T05:32:34.571Z,94.60
2019-03-22T05:33:10.646Z,94.60
2019-03-22T05:33:46.737Z,94.70
2019-03-22T05:34:22.832Z,94.60
2019-03-22T05:34:58.938Z,94.60
2019-03-22T05:35:35.043Z,94.60
2019-03-22T05:36:12.214Z,94.60
2019-03-22T05:36:48.334Z,94.70
2019-03-22T05:37:25.110Z,94.70
2019-03-22T05:38:01.170Z,94.70
2019-03-22T05:38:37.348Z,94.70
2019-03-22T05:39:13.435Z,94.70
2019-03-22T05:39:49.583Z,94.70
2019-03-22T05:40:25.670Z,94.70
2019-03-22T05:41:01.838Z,94.70
2019-03-22T05:41:38.222Z,94.70
2019-03-22T05:42:14.306Z,94.70
2019-03-22T05:42:50.715Z,94.70
2019-03-22T05:43:26.864Z,94.70
2019-03-22T05:44:03.547Z,94.70
2019-03-22T05:44:40.010Z,94.70
2019-03-22T05:45:16.131Z,94.60
2019-03-22T05:45:52.279Z,94.60
2019-03-22T05:46:28.365Z,94.70
2019-03-22T05:47:04.567Z,94.60
2019-03-22T05:47:40.945Z,94.60
2019-03-22T05:48:17.040Z,94.90
2019-03-22T05:48:53.128Z,94.60
2019-03-22T05:49:29.216Z,94.60
2019-03-22T05:50:05.598Z,94.60
2019-03-22T05:50:42.026Z,94.60
2019-03-22T05:51:18.119Z,94.60
2019-03-22T05:51:54.475Z,94.60
2019-03-22T05:52:31.301Z,94.70
2019-03-22T05:53:07.379Z,94.60
2019-03-22T05:53:43.758Z,94.60
2019-03-22T05:54:19.858Z,94.60
2019-03-22T05:54:55.975Z,94.60
2019-03-22T05:55:32.039Z,94.60
2019-03-22T05:56:08.187Z,94.60
2019-03-22T05:56:44.288Z,94.60
2019-03-22T05:57:20.399Z,94.60
2019-03-22T05:57:56.487Z,94.60
2019-03-22T05:58:32.593Z,95.00
2019-03-22T05:59:08.662Z,94.60
2019-03-22T05:59:44.771Z,94.60
2019-03-22T06:00:20.864Z,94.60
2019-03-22T06:00:56.958Z,94.60
2019-03-22T06:01:33.315Z,94.60
2019-03-22T06:02:09.416Z,94.60
2019-03-22T06:02:45.541Z,94.60
2019-03-22T06:03:21.721Z,94.60
2019-03-22T06:03:57.860Z,94.60
2019-03-22T06:04:34.007Z,94.60
2019-03-22T06:05:10.190Z,94.60
2019-03-22T06:05:46.306Z,94.60
2019-03-22T06:06:22.397Z,94.60
2019-03-22T06:06:58.488Z,94.60
2019-03-22T06:07:36.979Z,94.60
2019-03-22T06:08:12.368Z,94.60
2019-03-22T06:08:48.461Z,94.60
2019-03-22T06:09:25.918Z,94.70
2019-03-22T06:10:02.970Z,94.70
2019-03-22T06:10:39.105Z,95.00
2019-03-22T06:11:15.513Z,94.60
2019-03-22T06:11:51.613Z,94.60
2019-03-22T06:12:27.696Z,94.60
2019-03-22T06:13:05.352Z,94.60
2019-03-22T06:13:44.144Z,94.60
2019-03-22T06:14:19.297Z,94.70
2019-03-22T06:14:55.742Z,94.70
2019-03-22T06:15:31.866Z,94.80
2019-03-22T06:16:07.957Z,94.70
2019-03-22T06:16:44.072Z,94.70
2019-03-22T06:17:20.167Z,94.70
2019-03-22T06:17:56.252Z,94.70
2019-03-22T06:18:32.780Z,94.70
2019-03-22T06:19:10.186Z,94.70
2019-03-22T06:19:46.288Z,94.70
2019-03-22T06:20:22.669Z,94.70
2019-03-22T06:20:58.775Z,94.70
2019-03-22T06:21:34.861Z,94.60
2019-03-22T06:22:10.954Z,94.60
2019-03-22T06:22:47.047Z,94.60
2019-03-22T06:23:23.189Z,94.50
2019-03-22T06:23:59.316Z,94.50
2019-03-22T06:24:35.398Z,94.50
2019-03-22T06:25:12.489Z,94.50
2019-03-22T06:25:48.715Z,94.50
2019-03-22T06:26:24.821Z,94.50
2019-03-22T06:27:00.922Z,94.40
2019-03-22T06:27:37.032Z,94.40
2019-03-22T06:28:13.148Z,94.40
2019-03-22T06:28:49.240Z,94.40
2019-03-22T06:29:25.424Z,94.40
2019-03-22T06:30:01.523Z,94.40
2019-03-22T06:30:37.611Z,94.40
2019-03-22T06:31:13.707Z,94.40
2019-03-22T06:31:49.823Z,94.40
2019-03-22T06:32:25.926Z,94.80
2019-03-22T06:33:02.339Z,94.40
2019-03-22T06:33:38.414Z,94.40
2019-03-22T06:34:14.779Z,94.40
2019-03-22T06:34:50.928Z,94.40
2019-03-22T06:35:27.011Z,94.50
2019-03-22T06:36:03.381Z,94.50
2019-03-22T06:36:39.485Z,94.50
2019-03-22T06:37:15.588Z,94.50
2019-03-22T06:37:51.717Z,94.50
2019-03-22T06:38:28.083Z,94.60
2019-03-22T06:39:06.211Z,94.60
2019-03-22T06:39:42.290Z,94.50
2019-03-22T06:40:18.743Z,94.50
2019-03-22T06:40:54.823Z,94.50
2019-03-22T06:41:31.255Z,94.50
2019-03-22T06:42:07.650Z,94.50
2019-03-22T06:42:43.758Z,94.50
2019-03-22T06:43:19.895Z,94.50
2019-03-22T06:43:56.113Z,94.50
2019-03-22T06:44:32.249Z,94.50
2019-03-22T06:45:08.341Z,94.50
2019-03-22T06:45:44.774Z,94.50
2019-03-22T06:46:20.862Z,94.40
2019-03-22T06:46:56.961Z,94.50
2019-03-22T06:47:33.061Z,94.50
2019-03-22T06:48:10.098Z,94.50
2019-03-22T06:48:46.186Z,94.50
2019-03-22T06:49:22.460Z,94.40
2019-03-22T06:49:58.553Z,94.40
2019-03-22T06:50:34.641Z,94.50
2019-03-22T06:51:10.759Z,94.50
2019-03-22T06:51:46.849Z,94.50
2019-03-22T06:52:23.196Z,94.50
2019-03-22T06:52:59.278Z,94.50
2019-03-22T06:53:35.363Z,94.50
2019-03-22T06:54:11.738Z,94.50
2019-03-22T06:54:48.177Z,94.50
2019-03-22T06:55:24.264Z,94.60
2019-03-22T06:56:00.338Z,94.60
2019-03-22T06:56:36.439Z,94.60
2019-03-22T06:57:12.599Z,94.60
2019-03-22T06:57:49.028Z,94.60
2019-03-22T06:58:26.393Z,94.60
2019-03-22T06:59:02.476Z,94.60
2019-03-22T06:59:38.806Z,94.70
2019-03-22T07:00:14.996Z,94.70
2019-03-22T07:00:51.138Z,94.70
2019-03-22T07:01:27.245Z,94.80
2019-03-22T07:02:03.318Z,94.90
2019-03-22T07:02:39.948Z,94.90
2019-03-22T07:03:17.114Z,95.00
2019-03-22T07:03:53.235Z,95.00
2019-03-22T07:04:29.690Z,95.00
2019-03-22T07:05:07.046Z,95.00
2019-03-22T07:05:43.154Z,95.00
2019-03-22T07:06:19.295Z,95.00
2019-03-22T07:06:55.386Z,95.00
2019-03-22T07:07:31.556Z,95.00
2019-03-22T07:08:07.988Z,95.00
2019-03-22T07:08:44.223Z,95.00
2019-03-22T07:09:21.405Z,95.00
2019-03-22T07:09:57.525Z,95.40
2019-03-22T07:10:33.599Z,95.10
2019-03-22T07:11:09.934Z,95.00
2019-03-22T07:11:46.070Z,95.10
2019-03-22T07:12:22.204Z,95.10
2019-03-22T07:12:58.655Z,95.10
2019-03-22T07:13:35.183Z,95.10
2019-03-22T07:14:11.294Z,95.10
2019-03-22T07:14:47.455Z,95.10
2019-03-22T07:15:23.651Z,95.10
2019-03-22T07:15:59.726Z,95.10
2019-03-22T07:16:36.068Z,95.10
2019-03-22T07:17:12.169Z,95.10
2019-03-22T07:17:48.268Z,95.10
2019-03-22T07:18:24.359Z,95.20
2019-03-22T07:19:00.553Z,95.20
2019-03-22T07:19:37.051Z,95.20
2019-03-22T07:20:13.173Z,95.20
2019-03-22T07:20:49.570Z,95.20
2019-03-22T07:21:26.046Z,95.30
2019-03-22T07:22:02.498Z,95.30
2019-03-22T07:22:38.588Z,95.30
2019-03-22T07:23:14.713Z,95.40
2019-03-22T07:23:51.240Z,95.30
2019-03-22T07:24:27.320Z,95.20
2019-03-22T07:25:03.503Z,95.30
2019-03-22T07:25:39.604Z,95.30
2019-03-22T07:26:16.073Z,95.30
2019-03-22T07:26:52.196Z,95.30
2019-03-22T07:27:28.601Z,95.30
2019-03-22T07:28:04.679Z,95.10
2019-03-22T07:28:40.864Z,95.10
2019-03-22T07:29:16.942Z,95.10
2019-03-22T07:29:53.056Z,95.10
2019-03-22T07:30:29.154Z,95.10
2019-03-22T07:31:05.263Z,95.00
2019-03-22T07:31:41.727Z,95.00
2019-03-22T07:32:17.818Z,94.90
2019-03-22T07:32:53.898Z,94.90
2019-03-22T07:33:30.342Z,94.90
2019-03-22T07:34:06.419Z,94.80
2019-03-22T07:34:43.908Z,94.80
2019-03-22T07:35:19.989Z,94.80
2019-03-22T07:35:56.487Z,94.70
2019-03-22T07:36:32.673Z,94.70
2019-03-22T07:37:08.759Z,94.50
2019-03-22T07:37:44.857Z,94.40
2019-03-22T07:38:21.187Z,94.40
2019-03-22T07:38:57.271Z,94.40
2019-03-22T07:39:33.652Z,94.30
2019-03-22T07:40:09.810Z,94.30
2019-03-22T07:40:45.919Z,94.30
2019-03-22T07:41:22.281Z,94.30
2019-03-22T07:41:58.355Z,94.30
2019-03-22T07:42:34.471Z,94.10
2019-03-22T07:43:10.580Z,94.00
2019-03-22T07:43:46.652Z,94.10
2019-03-22T07:44:24.000Z,94.00
2019-03-22T07:45:00.425Z,93.90
2019-03-22T07:45:37.545Z,93.90
2019-03-22T07:46:13.621Z,93.80
2019-03-22T07:46:50.020Z,93.70
2019-03-22T07:47:26.727Z,93.80
2019-03-22T07:48:02.807Z,93.70
2019-03-22T07:48:38.906Z,93.70